sensor_id;sensor_type;location;lat;lon;timestamp;P1;durP1;ratioP1;P2;durP2;ratioP2
21301;SDS011;10810;48.270;9.996;2022-08-05T00:08:34;4.03;;;2.60;;
21301;SDS011;10810;48.270;9.996;2022-08-05T00:12:50;4.80;;;3.03;;
21301;SDS011;10810;48.270;9.996;2022-08-05T00:14:09;3.83;;;2.90;;
21301;SDS011;10810;48.270;9.996;2022-08-05T00:16:52;3.85;;;2.78;;
21301;SDS011;10810;48.270;9.996;2022-08-05T00:19:30;4.55;;;2.90;;
21301;SDS011;10810;48.270;9.996;2022-08-05T00:22:20;4.10;;;2.80;;
21301;SDS011;10810;48.270;9.996;2022-08-05T00:25:10;4.38;;;2.97;;
21301;SDS011;10810;48.270;9.996;2022-08-05T00:27:41;5.40;;;3.00;;
21301;SDS011;10810;48.270;9.996;2022-08-05T00:30:28;4.75;;;2.80;;
21301;SDS011;10810;48.270;9.996;2022-08-05T00:33:16;4.38;;;2.90;;
21301;SDS011;10810;48.270;9.996;2022-08-05T00:35:52;6.35;;;2.97;;
21301;SDS011;10810;48.270;9.996;2022-08-05T00:38:42;5.95;;;3.10;;
21301;SDS011;10810;48.270;9.996;2022-08-05T00:41:33;6.50;;;3.05;;
21301;SDS011;10810;48.270;9.996;2022-08-05T00:44:39;4.82;;;3.20;;
21301;SDS011;10810;48.270;9.996;2022-08-05T00:47:27;4.07;;;2.60;;
21301;SDS011;10810;48.270;9.996;2022-08-05T00:50:06;4.22;;;2.92;;
21301;SDS011;10810;48.270;9.996;2022-08-05T00:53:11;4.93;;;3.05;;
21301;SDS011;10810;48.270;9.996;2022-08-05T00:55:43;4.90;;;3.17;;
21301;SDS011;10810;48.270;9.996;2022-08-05T00:58:24;5.20;;;3.00;;
21301;SDS011;10810;48.270;9.996;2022-08-05T01:04:37;5.00;;;2.95;;
21301;SDS011;10810;48.270;9.996;2022-08-05T01:07:10;3.58;;;2.90;;
21301;SDS011;10810;48.270;9.996;2022-08-05T01:09:59;4.63;;;3.10;;
21301;SDS011;10810;48.270;9.996;2022-08-05T01:15:58;4.22;;;3.00;;
21301;SDS011;10810;48.270;9.996;2022-08-05T01:18:37;7.00;;;3.38;;
21301;SDS011;10810;48.270;9.996;2022-08-05T01:21:27;5.57;;;3.25;;
21301;SDS011;10810;48.270;9.996;2022-08-05T01:24:43;5.35;;;2.83;;
21301;SDS011;10810;48.270;9.996;2022-08-05T01:33:30;4.57;;;3.20;;
21301;SDS011;10810;48.270;9.996;2022-08-05T01:36:24;4.50;;;2.90;;
21301;SDS011;10810;48.270;9.996;2022-08-05T01:39:03;3.72;;;2.60;;
21301;SDS011;10810;48.270;9.996;2022-08-05T01:41:53;4.18;;;3.03;;
21301;SDS011;10810;48.270;9.996;2022-08-05T01:44:36;4.95;;;3.17;;
21301;SDS011;10810;48.270;9.996;2022-08-05T01:47:27;4.45;;;2.97;;
21301;SDS011;10810;48.270;9.996;2022-08-05T01:50:07;4.82;;;2.80;;
21301;SDS011;10810;48.270;9.996;2022-08-05T02:01:59;4.20;;;2.70;;
21301;SDS011;10810;48.270;9.996;2022-08-05T02:04:46;5.05;;;3.13;;
21301;SDS011;10810;48.270;9.996;2022-08-05T02:08:17;4.13;;;3.00;;
21301;SDS011;10810;48.270;9.996;2022-08-05T02:10:40;4.00;;;2.85;;
21301;SDS011;10810;48.270;9.996;2022-08-05T02:13:16;4.25;;;2.67;;
21301;SDS011;10810;48.270;9.996;2022-08-05T02:15:59;5.72;;;3.28;;
21301;SDS011;10810;48.270;9.996;2022-08-05T02:22:17;4.55;;;3.20;;
21301;SDS011;10810;48.270;9.996;2022-08-05T02:24:50;4.68;;;3.08;;
21301;SDS011;10810;48.270;9.996;2022-08-05T02:27:34;4.57;;;3.00;;
21301;SDS011;10810;48.270;9.996;2022-08-05T02:30:20;4.22;;;3.03;;
21301;SDS011;10810;48.270;9.996;2022-08-05T02:32:51;4.90;;;3.30;;
21301;SDS011;10810;48.270;9.996;2022-08-05T02:35:59;5.05;;;2.85;;
21301;SDS011;10810;48.270;9.996;2022-08-05T02:38:14;5.28;;;3.30;;
21301;SDS011;10810;48.270;9.996;2022-08-05T02:41:06;4.75;;;2.85;;
21301;SDS011;10810;48.270;9.996;2022-08-05T02:44:05;3.95;;;2.97;;
21301;SDS011;10810;48.270;9.996;2022-08-05T02:47:16;5.70;;;3.00;;
21301;SDS011;10810;48.270;9.996;2022-08-05T02:49:55;5.57;;;2.92;;
21301;SDS011;10810;48.270;9.996;2022-08-05T02:52:52;4.07;;;2.90;;
21301;SDS011;10810;48.270;9.996;2022-08-05T02:55:39;3.88;;;2.80;;
21301;SDS011;10810;48.270;9.996;2022-08-05T02:58:31;4.60;;;3.10;;
21301;SDS011;10810;48.270;9.996;2022-08-05T03:01:23;4.53;;;3.00;;
21301;SDS011;10810;48.270;9.996;2022-08-05T03:04:32;4.47;;;2.97;;
21301;SDS011;10810;48.270;9.996;2022-08-05T03:10:16;4.15;;;2.67;;
21301;SDS011;10810;48.270;9.996;2022-08-05T03:13:10;4.18;;;3.03;;
21301;SDS011;10810;48.270;9.996;2022-08-05T03:15:45;5.00;;;3.20;;
21301;SDS011;10810;48.270;9.996;2022-08-05T03:18:53;4.40;;;2.97;;
21301;SDS011;10810;48.270;9.996;2022-08-05T03:21:14;5.90;;;3.05;;
21301;SDS011;10810;48.270;9.996;2022-08-05T03:23:49;4.20;;;2.90;;
21301;SDS011;10810;48.270;9.996;2022-08-05T03:29:55;5.53;;;3.13;;
21301;SDS011;10810;48.270;9.996;2022-08-05T03:32:38;5.35;;;3.13;;
21301;SDS011;10810;48.270;9.996;2022-08-05T03:35:14;5.03;;;3.10;;
21301;SDS011;10810;48.270;9.996;2022-08-05T03:37:42;4.78;;;2.90;;
21301;SDS011;10810;48.270;9.996;2022-08-05T03:40:23;8.27;;;3.42;;
21301;SDS011;10810;48.270;9.996;2022-08-05T03:43:10;5.72;;;3.58;;
21301;SDS011;10810;48.270;9.996;2022-08-05T03:46:05;6.45;;;3.63;;
21301;SDS011;10810;48.270;9.996;2022-08-05T03:51:48;4.25;;;3.00;;
21301;SDS011;10810;48.270;9.996;2022-08-05T03:54:32;5.95;;;3.40;;
21301;SDS011;10810;48.270;9.996;2022-08-05T03:57:31;4.78;;;3.25;;
21301;SDS011;10810;48.270;9.996;2022-08-05T04:00:19;8.10;;;3.13;;
21301;SDS011;10810;48.270;9.996;2022-08-05T04:03:03;5.00;;;3.13;;
21301;SDS011;10810;48.270;9.996;2022-08-05T04:06:30;5.38;;;3.28;;
21301;SDS011;10810;48.270;9.996;2022-08-05T04:10:01;5.15;;;3.30;;
21301;SDS011;10810;48.270;9.996;2022-08-05T04:12:12;6.07;;;3.30;;
21301;SDS011;10810;48.270;9.996;2022-08-05T04:15:52;5.00;;;3.05;;
21301;SDS011;10810;48.270;9.996;2022-08-05T04:21:12;4.72;;;2.90;;
21301;SDS011;10810;48.270;9.996;2022-08-05T04:24:33;5.55;;;3.10;;
21301;SDS011;10810;48.270;9.996;2022-08-05T04:26:44;4.93;;;3.10;;
21301;SDS011;10810;48.270;9.996;2022-08-05T04:29:50;4.50;;;3.00;;
21301;SDS011;10810;48.270;9.996;2022-08-05T04:32:54;6.18;;;3.50;;
21301;SDS011;10810;48.270;9.996;2022-08-05T04:35:33;4.75;;;2.95;;
21301;SDS011;10810;48.270;9.996;2022-08-05T04:38:11;4.45;;;2.90;;
21301;SDS011;10810;48.270;9.996;2022-08-05T04:40:51;4.88;;;3.15;;
21301;SDS011;10810;48.270;9.996;2022-08-05T04:43:20;5.10;;;3.05;;
21301;SDS011;10810;48.270;9.996;2022-08-05T04:45:50;4.68;;;3.00;;
21301;SDS011;10810;48.270;9.996;2022-08-05T04:48:33;6.22;;;2.80;;
21301;SDS011;10810;48.270;9.996;2022-08-05T04:51:03;4.57;;;3.13;;
21301;SDS011;10810;48.270;9.996;2022-08-05T04:53:32;9.10;;;3.30;;
21301;SDS011;10810;48.270;9.996;2022-08-05T04:56:01;3.85;;;2.72;;
21301;SDS011;10810;48.270;9.996;2022-08-05T04:58:30;4.85;;;2.80;;
21301;SDS011;10810;48.270;9.996;2022-08-05T05:01:12;5.75;;;3.28;;
21301;SDS011;10810;48.270;9.996;2022-08-05T05:03:56;4.38;;;2.95;;
21301;SDS011;10810;48.270;9.996;2022-08-05T05:09:42;4.25;;;3.00;;
21301;SDS011;10810;48.270;9.996;2022-08-05T05:12:33;5.68;;;2.60;;
21301;SDS011;10810;48.270;9.996;2022-08-05T05:15:06;5.07;;;2.60;;
21301;SDS011;10810;48.270;9.996;2022-08-05T05:21:12;5.80;;;2.80;;
21301;SDS011;10810;48.270;9.996;2022-08-05T05:26:43;3.75;;;2.67;;
21301;SDS011;10810;48.270;9.996;2022-08-05T05:29:20;4.53;;;3.00;;
21301;SDS011;10810;48.270;9.996;2022-08-05T05:32:10;3.53;;;2.67;;
21301;SDS011;10810;48.270;9.996;2022-08-05T05:36:19;4.40;;;2.85;;
21301;SDS011;10810;48.270;9.996;2022-08-05T05:37:32;3.70;;;2.70;;
21301;SDS011;10810;48.270;9.996;2022-08-05T05:40:13;3.88;;;2.60;;
21301;SDS011;10810;48.270;9.996;2022-08-05T05:45:38;5.30;;;2.65;;
21301;SDS011;10810;48.270;9.996;2022-08-05T05:48:21;4.00;;;2.70;;
21301;SDS011;10810;48.270;9.996;2022-08-05T05:50:57;3.67;;;2.33;;
21301;SDS011;10810;48.270;9.996;2022-08-05T05:53:40;5.38;;;2.58;;
21301;SDS011;10810;48.270;9.996;2022-08-05T05:56:15;4.50;;;2.60;;
21301;SDS011;10810;48.270;9.996;2022-08-05T05:58:46;4.45;;;2.80;;
21301;SDS011;10810;48.270;9.996;2022-08-05T06:01:13;5.28;;;2.90;;
21301;SDS011;10810;48.270;9.996;2022-08-05T06:03:41;3.67;;;2.50;;
21301;SDS011;10810;48.270;9.996;2022-08-05T06:06:08;4.75;;;2.25;;
21301;SDS011;10810;48.270;9.996;2022-08-05T06:08:35;4.90;;;2.72;;
21301;SDS011;10810;48.270;9.996;2022-08-05T06:11:02;3.70;;;2.35;;
21301;SDS011;10810;48.270;9.996;2022-08-05T06:13:30;4.50;;;2.55;;
21301;SDS011;10810;48.270;9.996;2022-08-05T06:15:59;3.80;;;2.60;;
21301;SDS011;10810;48.270;9.996;2022-08-05T06:18:26;4.28;;;2.60;;
21301;SDS011;10810;48.270;9.996;2022-08-05T06:20:54;4.25;;;2.80;;
21301;SDS011;10810;48.270;9.996;2022-08-05T06:23:38;3.20;;;2.63;;
21301;SDS011;10810;48.270;9.996;2022-08-05T06:26:27;4.88;;;2.78;;
21301;SDS011;10810;48.270;9.996;2022-08-05T06:28:56;3.75;;;2.63;;
21301;SDS011;10810;48.270;9.996;2022-08-05T06:34:32;4.30;;;2.50;;
21301;SDS011;10810;48.270;9.996;2022-08-05T06:37:00;3.50;;;2.30;;
21301;SDS011;10810;48.270;9.996;2022-08-05T06:39:29;4.00;;;2.40;;
21301;SDS011;10810;48.270;9.996;2022-08-05T06:41:56;3.88;;;2.53;;
21301;SDS011;10810;48.270;9.996;2022-08-05T06:44:25;4.80;;;2.30;;
21301;SDS011;10810;48.270;9.996;2022-08-05T06:56:39;4.90;;;2.47;;
21301;SDS011;10810;48.270;9.996;2022-08-05T06:59:42;4.65;;;2.40;;
21301;SDS011;10810;48.270;9.996;2022-08-05T07:02:30;4.72;;;2.55;;
21301;SDS011;10810;48.270;9.996;2022-08-05T07:05:50;4.07;;;2.47;;
21301;SDS011;10810;48.270;9.996;2022-08-05T07:08:17;4.70;;;2.58;;
21301;SDS011;10810;48.270;9.996;2022-08-05T07:11:00;3.55;;;2.20;;
21301;SDS011;10810;48.270;9.996;2022-08-05T07:14:01;4.13;;;2.20;;
21301;SDS011;10810;48.270;9.996;2022-08-05T07:16:46;4.15;;;2.58;;
21301;SDS011;10810;48.270;9.996;2022-08-05T07:19:19;3.60;;;2.50;;
21301;SDS011;10810;48.270;9.996;2022-08-05T07:21:50;7.15;;;2.20;;
21301;SDS011;10810;48.270;9.996;2022-08-05T07:24:18;4.03;;;2.63;;
21301;SDS011;10810;48.270;9.996;2022-08-05T07:27:22;4.90;;;2.75;;
21301;SDS011;10810;48.270;9.996;2022-08-05T07:30:06;4.57;;;2.60;;
21301;SDS011;10810;48.270;9.996;2022-08-05T07:32:44;3.63;;;2.60;;
21301;SDS011;10810;48.270;9.996;2022-08-05T07:35:12;8.27;;;2.78;;
21301;SDS011;10810;48.270;9.996;2022-08-05T07:37:39;4.85;;;2.65;;
21301;SDS011;10810;48.270;9.996;2022-08-05T07:40:09;5.80;;;2.70;;
21301;SDS011;10810;48.270;9.996;2022-08-05T07:42:36;4.03;;;2.63;;
21301;SDS011;10810;48.270;9.996;2022-08-05T07:45:03;5.85;;;3.10;;
21301;SDS011;10810;48.270;9.996;2022-08-05T07:47:35;3.95;;;2.63;;
21301;SDS011;10810;48.270;9.996;2022-08-05T07:50:23;6.20;;;2.60;;
21301;SDS011;10810;48.270;9.996;2022-08-05T07:52:56;5.28;;;2.70;;
21301;SDS011;10810;48.270;9.996;2022-08-05T07:56:04;4.38;;;2.50;;
21301;SDS011;10810;48.270;9.996;2022-08-05T08:08:00;2.75;;;2.00;;
21301;SDS011;10810;48.270;9.996;2022-08-05T08:11:24;3.40;;;2.00;;
21301;SDS011;10810;48.270;9.996;2022-08-05T08:15:19;2.58;;;1.85;;
21301;SDS011;10810;48.270;9.996;2022-08-05T08:17:47;2.97;;;1.98;;
21301;SDS011;10810;48.270;9.996;2022-08-05T08:20:15;4.57;;;1.98;;
21301;SDS011;10810;48.270;9.996;2022-08-05T08:23:03;2.22;;;1.90;;
21301;SDS011;10810;48.270;9.996;2022-08-05T08:25:35;3.15;;;1.85;;
21301;SDS011;10810;48.270;9.996;2022-08-05T08:28:22;2.78;;;1.70;;
21301;SDS011;10810;48.270;9.996;2022-08-05T08:31:07;1.85;;;1.45;;
21301;SDS011;10810;48.270;9.996;2022-08-05T08:43:42;3.05;;;1.98;;
21301;SDS011;10810;48.270;9.996;2022-08-05T08:47:45;1.95;;;1.42;;
21301;SDS011;10810;48.270;9.996;2022-08-05T08:49:11;2.10;;;1.60;;
21301;SDS011;10810;48.270;9.996;2022-08-05T08:51:45;2.58;;;1.65;;
21301;SDS011;10810;48.270;9.996;2022-08-05T08:55:31;2.70;;;1.70;;
21301;SDS011;10810;48.270;9.996;2022-08-05T08:58:13;2.42;;;1.70;;
21301;SDS011;10810;48.270;9.996;2022-08-05T09:01:03;2.47;;;1.80;;
21301;SDS011;10810;48.270;9.996;2022-08-05T09:03:41;3.60;;;1.65;;
21301;SDS011;10810;48.270;9.996;2022-08-05T09:06:12;2.90;;;1.67;;
21301;SDS011;10810;48.270;9.996;2022-08-05T09:08:52;4.22;;;2.00;;
21301;SDS011;10810;48.270;9.996;2022-08-05T09:11:19;3.15;;;1.50;;
21301;SDS011;10810;48.270;9.996;2022-08-05T09:13:47;3.50;;;1.60;;
21301;SDS011;10810;48.270;9.996;2022-08-05T09:16:18;2.63;;;1.67;;
21301;SDS011;10810;48.270;9.996;2022-08-05T09:18:45;2.97;;;2.00;;
21301;SDS011;10810;48.270;9.996;2022-08-05T09:21:33;6.13;;;2.10;;
21301;SDS011;10810;48.270;9.996;2022-08-05T09:24:07;2.38;;;1.70;;
21301;SDS011;10810;48.270;9.996;2022-08-05T09:28:04;2.30;;;1.80;;
21301;SDS011;10810;48.270;9.996;2022-08-05T09:30:16;3.53;;;1.88;;
21301;SDS011;10810;48.270;9.996;2022-08-05T09:35:54;3.72;;;2.00;;
21301;SDS011;10810;48.270;9.996;2022-08-05T09:38:41;3.25;;;2.00;;
21301;SDS011;10810;48.270;9.996;2022-08-05T09:41:37;3.70;;;2.00;;
21301;SDS011;10810;48.270;9.996;2022-08-05T09:44:57;4.03;;;2.13;;
21301;SDS011;10810;48.270;9.996;2022-08-05T09:47:55;3.40;;;2.30;;
21301;SDS011;10810;48.270;9.996;2022-08-05T09:51:15;2.67;;;2.00;;
21301;SDS011;10810;48.270;9.996;2022-08-05T09:54:20;5.03;;;2.08;;
21301;SDS011;10810;48.270;9.996;2022-08-05T09:57:46;3.95;;;2.08;;
21301;SDS011;10810;48.270;9.996;2022-08-05T10:01:01;3.80;;;2.40;;
21301;SDS011;10810;48.270;9.996;2022-08-05T10:04:56;4.35;;;1.90;;
21301;SDS011;10810;48.270;9.996;2022-08-05T10:13:37;3.25;;;2.20;;
21301;SDS011;10810;48.270;9.996;2022-08-05T10:16:37;3.85;;;1.98;;
21301;SDS011;10810;48.270;9.996;2022-08-05T10:19:09;3.00;;;1.77;;
21301;SDS011;10810;48.270;9.996;2022-08-05T10:22:10;2.75;;;1.80;;
21301;SDS011;10810;48.270;9.996;2022-08-05T10:25:06;4.15;;;2.53;;
21301;SDS011;10810;48.270;9.996;2022-08-05T10:27:53;2.70;;;1.90;;
21301;SDS011;10810;48.270;9.996;2022-08-05T10:30:33;3.03;;;1.98;;
21301;SDS011;10810;48.270;9.996;2022-08-05T10:34:03;2.88;;;1.98;;
21301;SDS011;10810;48.270;9.996;2022-08-05T10:39:47;3.35;;;2.00;;
21301;SDS011;10810;48.270;9.996;2022-08-05T10:43:08;3.15;;;1.98;;
21301;SDS011;10810;48.270;9.996;2022-08-05T10:45:56;2.80;;;2.20;;
21301;SDS011;10810;48.270;9.996;2022-08-05T10:49:00;2.22;;;1.88;;
21301;SDS011;10810;48.270;9.996;2022-08-05T10:51:41;3.15;;;2.00;;
21301;SDS011;10810;48.270;9.996;2022-08-05T10:54:16;4.57;;;1.90;;
21301;SDS011;10810;48.270;9.996;2022-08-05T10:57:21;2.63;;;1.73;;
21301;SDS011;10810;48.270;9.996;2022-08-05T11:00:53;2.97;;;1.90;;
21301;SDS011;10810;48.270;9.996;2022-08-05T11:06:28;2.97;;;2.10;;
21301;SDS011;10810;48.270;9.996;2022-08-05T11:09:21;2.80;;;1.98;;
21301;SDS011;10810;48.270;9.996;2022-08-05T11:15:10;2.95;;;1.85;;
21301;SDS011;10810;48.270;9.996;2022-08-05T11:17:45;3.10;;;2.00;;
21301;SDS011;10810;48.270;9.996;2022-08-05T11:20:36;3.78;;;2.30;;
21301;SDS011;10810;48.270;9.996;2022-08-05T11:25:59;4.25;;;1.80;;
21301;SDS011;10810;48.270;9.996;2022-08-05T11:28:45;3.63;;;1.90;;
21301;SDS011;10810;48.270;9.996;2022-08-05T11:31:19;3.20;;;2.00;;
21301;SDS011;10810;48.270;9.996;2022-08-05T11:33:52;3.03;;;2.00;;
21301;SDS011;10810;48.270;9.996;2022-08-05T11:36:21;3.03;;;2.03;;
21301;SDS011;10810;48.270;9.996;2022-08-05T11:39:19;3.80;;;2.08;;
21301;SDS011;10810;48.270;9.996;2022-08-05T11:42:27;2.90;;;1.90;;
21301;SDS011;10810;48.270;9.996;2022-08-05T11:45:30;3.33;;;1.95;;
21301;SDS011;10810;48.270;9.996;2022-08-05T11:50:13;2.88;;;2.00;;
21301;SDS011;10810;48.270;9.996;2022-08-05T11:51:51;2.63;;;1.90;;
21301;SDS011;10810;48.270;9.996;2022-08-05T12:04:24;3.15;;;2.08;;
21301;SDS011;10810;48.270;9.996;2022-08-05T12:07:18;2.58;;;1.85;;
21301;SDS011;10810;48.270;9.996;2022-08-05T12:10:18;2.60;;;1.90;;
21301;SDS011;10810;48.270;9.996;2022-08-05T12:13:45;3.60;;;2.00;;
21301;SDS011;10810;48.270;9.996;2022-08-05T12:16:05;3.13;;;1.98;;
21301;SDS011;10810;48.270;9.996;2022-08-05T12:25:05;4.15;;;2.30;;
21301;SDS011;10810;48.270;9.996;2022-08-05T12:27:33;3.20;;;2.30;;
21301;SDS011;10810;48.270;9.996;2022-08-05T12:33:30;2.40;;;2.00;;
21301;SDS011;10810;48.270;9.996;2022-08-05T12:36:07;3.30;;;2.05;;
21301;SDS011;10810;48.270;9.996;2022-08-05T12:38:38;3.38;;;2.22;;
21301;SDS011;10810;48.270;9.996;2022-08-05T12:41:38;4.60;;;1.92;;
21301;SDS011;10810;48.270;9.996;2022-08-05T12:47:49;3.15;;;2.25;;
21301;SDS011;10810;48.270;9.996;2022-08-05T12:50:41;2.42;;;1.92;;
21301;SDS011;10810;48.270;9.996;2022-08-05T12:53:44;3.13;;;2.00;;
21301;SDS011;10810;48.270;9.996;2022-08-05T13:03:24;3.67;;;2.17;;
21301;SDS011;10810;48.270;9.996;2022-08-05T13:06:20;3.53;;;2.10;;
21301;SDS011;10810;48.270;9.996;2022-08-05T13:10:29;4.55;;;2.08;;
21301;SDS011;10810;48.270;9.996;2022-08-05T13:15:57;2.47;;;1.80;;
21301;SDS011;10810;48.270;9.996;2022-08-05T13:19:38;3.15;;;2.28;;
21301;SDS011;10810;48.270;9.996;2022-08-05T13:22:09;5.25;;;2.50;;
21301;SDS011;10810;48.270;9.996;2022-08-05T13:24:50;3.65;;;2.30;;
21301;SDS011;10810;48.270;9.996;2022-08-05T13:27:33;2.53;;;2.05;;
21301;SDS011;10810;48.270;9.996;2022-08-05T13:33:50;3.58;;;2.20;;
21301;SDS011;10810;48.270;9.996;2022-08-05T13:36:42;2.58;;;2.00;;
21301;SDS011;10810;48.270;9.996;2022-08-05T13:39:41;3.03;;;2.10;;
21301;SDS011;10810;48.270;9.996;2022-08-05T13:43:46;2.95;;;2.22;;
21301;SDS011;10810;48.270;9.996;2022-08-05T13:51:32;3.15;;;2.22;;
21301;SDS011;10810;48.270;9.996;2022-08-05T13:54:19;4.43;;;2.20;;
21301;SDS011;10810;48.270;9.996;2022-08-05T14:00:40;4.15;;;2.10;;
21301;SDS011;10810;48.270;9.996;2022-08-05T14:03:40;3.08;;;2.10;;
21301;SDS011;10810;48.270;9.996;2022-08-05T14:09:50;3.33;;;2.20;;
21301;SDS011;10810;48.270;9.996;2022-08-05T14:13:16;2.92;;;2.10;;
21301;SDS011;10810;48.270;9.996;2022-08-05T14:15:50;3.05;;;2.30;;
21301;SDS011;10810;48.270;9.996;2022-08-05T14:19:09;2.78;;;1.98;;
21301;SDS011;10810;48.270;9.996;2022-08-05T14:21:27;3.38;;;2.28;;
21301;SDS011;10810;48.270;9.996;2022-08-05T14:23:54;2.92;;;2.08;;
21301;SDS011;10810;48.270;9.996;2022-08-05T14:29:47;3.30;;;2.35;;
21301;SDS011;10810;48.270;9.996;2022-08-05T14:32:47;2.97;;;2.30;;
21301;SDS011;10810;48.270;9.996;2022-08-05T14:39:00;3.30;;;2.15;;
21301;SDS011;10810;48.270;9.996;2022-08-05T14:41:39;3.65;;;2.40;;
21301;SDS011;10810;48.270;9.996;2022-08-05T14:44:39;3.33;;;2.20;;
21301;SDS011;10810;48.270;9.996;2022-08-05T14:47:24;3.40;;;2.38;;
21301;SDS011;10810;48.270;9.996;2022-08-05T14:49:59;3.85;;;2.60;;
21301;SDS011;10810;48.270;9.996;2022-08-05T14:53:36;4.88;;;2.60;;
21301;SDS011;10810;48.270;9.996;2022-08-05T14:56:14;3.55;;;2.42;;
21301;SDS011;10810;48.270;9.996;2022-08-05T14:59:12;2.97;;;2.20;;
21301;SDS011;10810;48.270;9.996;2022-08-05T15:01:48;2.95;;;2.30;;
21301;SDS011;10810;48.270;9.996;2022-08-05T15:06:18;3.95;;;2.53;;
21301;SDS011;10810;48.270;9.996;2022-08-05T15:07:26;4.75;;;2.33;;
21301;SDS011;10810;48.270;9.996;2022-08-05T15:10:17;4.40;;;2.58;;
21301;SDS011;10810;48.270;9.996;2022-08-05T15:12:57;3.80;;;2.53;;
21301;SDS011;10810;48.270;9.996;2022-08-05T15:15:30;3.72;;;2.72;;
21301;SDS011;10810;48.270;9.996;2022-08-05T15:21:47;3.22;;;2.20;;
21301;SDS011;10810;48.270;9.996;2022-08-05T15:24:56;3.30;;;2.17;;
21301;SDS011;10810;48.270;9.996;2022-08-05T15:29:05;3.42;;;2.22;;
21301;SDS011;10810;48.270;9.996;2022-08-05T15:30:23;3.08;;;2.35;;
21301;SDS011;10810;48.270;9.996;2022-08-05T15:33:30;4.50;;;2.35;;
21301;SDS011;10810;48.270;9.996;2022-08-05T15:36:26;3.33;;;2.42;;
21301;SDS011;10810;48.270;9.996;2022-08-05T15:39:26;3.00;;;2.10;;
21301;SDS011;10810;48.270;9.996;2022-08-05T15:45:19;3.63;;;2.70;;
21301;SDS011;10810;48.270;9.996;2022-08-05T15:47:49;3.80;;;2.53;;
21301;SDS011;10810;48.270;9.996;2022-08-05T15:50:19;3.95;;;2.85;;
21301;SDS011;10810;48.270;9.996;2022-08-05T15:52:54;3.20;;;2.22;;
21301;SDS011;10810;48.270;9.996;2022-08-05T15:55:57;3.90;;;2.78;;
21301;SDS011;10810;48.270;9.996;2022-08-05T15:58:26;3.47;;;2.33;;
21301;SDS011;10810;48.270;9.996;2022-08-05T16:00:57;3.30;;;2.30;;
21301;SDS011;10810;48.270;9.996;2022-08-05T16:03:44;4.20;;;2.63;;
21301;SDS011;10810;48.270;9.996;2022-08-05T16:06:52;4.03;;;2.70;;
21301;SDS011;10810;48.270;9.996;2022-08-05T16:16:17;3.63;;;2.50;;
21301;SDS011;10810;48.270;9.996;2022-08-05T16:18:44;4.00;;;2.60;;
21301;SDS011;10810;48.270;9.996;2022-08-05T16:21:41;3.30;;;2.40;;
21301;SDS011;10810;48.270;9.996;2022-08-05T16:24:40;10.30;;;2.47;;
21301;SDS011;10810;48.270;9.996;2022-08-05T16:26:58;3.15;;;2.42;;
21301;SDS011;10810;48.270;9.996;2022-08-05T16:32:51;3.72;;;2.47;;
21301;SDS011;10810;48.270;9.996;2022-08-05T16:35:28;3.17;;;2.60;;
21301;SDS011;10810;48.270;9.996;2022-08-05T16:38:13;3.85;;;2.50;;
21301;SDS011;10810;48.270;9.996;2022-08-05T16:40:43;4.97;;;2.80;;
21301;SDS011;10810;48.270;9.996;2022-08-05T16:43:14;3.80;;;2.70;;
21301;SDS011;10810;48.270;9.996;2022-08-05T16:45:56;4.22;;;2.97;;
21301;SDS011;10810;48.270;9.996;2022-08-05T16:48:26;4.40;;;2.78;;
21301;SDS011;10810;48.270;9.996;2022-08-05T16:50:58;3.72;;;2.55;;
21301;SDS011;10810;48.270;9.996;2022-08-05T16:53:27;4.15;;;2.50;;
21301;SDS011;10810;48.270;9.996;2022-08-05T16:55:54;3.60;;;2.60;;
21301;SDS011;10810;48.270;9.996;2022-08-05T16:58:23;3.33;;;2.70;;
21301;SDS011;10810;48.270;9.996;2022-08-05T17:00:58;4.63;;;2.55;;
21301;SDS011;10810;48.270;9.996;2022-08-05T17:06:46;4.13;;;2.47;;
21301;SDS011;10810;48.270;9.996;2022-08-05T17:09:40;3.88;;;2.58;;
21301;SDS011;10810;48.270;9.996;2022-08-05T17:12:07;3.72;;;2.58;;
21301;SDS011;10810;48.270;9.996;2022-08-05T17:14:45;4.03;;;2.80;;
21301;SDS011;10810;48.270;9.996;2022-08-05T17:17:18;3.75;;;2.60;;
21301;SDS011;10810;48.270;9.996;2022-08-05T17:19:53;4.00;;;2.63;;
21301;SDS011;10810;48.270;9.996;2022-08-05T17:25:26;3.45;;;2.30;;
21301;SDS011;10810;48.270;9.996;2022-08-05T17:27:54;4.10;;;2.47;;
21301;SDS011;10810;48.270;9.996;2022-08-05T17:30:26;4.45;;;2.80;;
21301;SDS011;10810;48.270;9.996;2022-08-05T17:32:56;3.42;;;2.53;;
21301;SDS011;10810;48.270;9.996;2022-08-05T17:35:37;3.85;;;2.63;;
21301;SDS011;10810;48.270;9.996;2022-08-05T17:41:05;3.22;;;2.58;;
21301;SDS011;10810;48.270;9.996;2022-08-05T17:43:48;5.03;;;2.80;;
21301;SDS011;10810;48.270;9.996;2022-08-05T17:46:16;3.75;;;2.53;;
21301;SDS011;10810;48.270;9.996;2022-08-05T17:48:45;3.38;;;2.42;;
21301;SDS011;10810;48.270;9.996;2022-08-05T17:51:19;3.95;;;2.42;;
21301;SDS011;10810;48.270;9.996;2022-08-05T17:54:02;4.85;;;2.70;;
21301;SDS011;10810;48.270;9.996;2022-08-05T17:56:35;3.03;;;2.20;;
21301;SDS011;10810;48.270;9.996;2022-08-05T17:59:04;4.82;;;2.20;;
21301;SDS011;10810;48.270;9.996;2022-08-05T18:01:33;5.07;;;2.50;;
21301;SDS011;10810;48.270;9.996;2022-08-05T18:04:14;3.60;;;2.25;;
21301;SDS011;10810;48.270;9.996;2022-08-05T18:06:42;2.70;;;2.00;;
21301;SDS011;10810;48.270;9.996;2022-08-05T18:09:12;4.40;;;1.98;;
21301;SDS011;10810;48.270;9.996;2022-08-05T18:11:40;2.58;;;1.92;;
21301;SDS011;10810;48.270;9.996;2022-08-05T18:14:07;4.65;;;2.38;;
21301;SDS011;10810;48.270;9.996;2022-08-05T18:16:44;3.13;;;1.98;;
21301;SDS011;10810;48.270;9.996;2022-08-05T18:19:15;2.55;;;1.80;;
21301;SDS011;10810;48.270;9.996;2022-08-05T18:21:42;4.15;;;2.10;;
21301;SDS011;10810;48.270;9.996;2022-08-05T18:24:09;2.85;;;1.95;;
21301;SDS011;10810;48.270;9.996;2022-08-05T18:26:42;2.40;;;1.73;;
21301;SDS011;10810;48.270;9.996;2022-08-05T18:29:10;2.78;;;1.70;;
21301;SDS011;10810;48.270;9.996;2022-08-05T18:31:38;2.67;;;1.85;;
21301;SDS011;10810;48.270;9.996;2022-08-05T18:34:06;3.28;;;1.95;;
21301;SDS011;10810;48.270;9.996;2022-08-05T18:36:33;5.30;;;2.35;;
21301;SDS011;10810;48.270;9.996;2022-08-05T18:39:06;3.47;;;2.17;;
21301;SDS011;10810;48.270;9.996;2022-08-05T18:41:35;2.63;;;1.90;;
21301;SDS011;10810;48.270;9.996;2022-08-05T18:44:14;3.33;;;1.92;;
21301;SDS011;10810;48.270;9.996;2022-08-05T18:46:53;4.30;;;2.00;;
21301;SDS011;10810;48.270;9.996;2022-08-05T18:49:20;3.08;;;1.70;;
21301;SDS011;10810;48.270;9.996;2022-08-05T18:52:05;2.60;;;1.88;;
21301;SDS011;10810;48.270;9.996;2022-08-05T18:54:49;3.50;;;2.20;;
21301;SDS011;10810;48.270;9.996;2022-08-05T18:57:16;3.42;;;2.25;;
21301;SDS011;10810;48.270;9.996;2022-08-05T18:59:45;2.17;;;1.70;;
21301;SDS011;10810;48.270;9.996;2022-08-05T19:02:13;3.65;;;2.10;;
21301;SDS011;10810;48.270;9.996;2022-08-05T19:04:40;2.95;;;1.83;;
21301;SDS011;10810;48.270;9.996;2022-08-05T19:07:07;3.67;;;2.20;;
21301;SDS011;10810;48.270;9.996;2022-08-05T19:09:36;4.78;;;1.83;;
21301;SDS011;10810;48.270;9.996;2022-08-05T19:12:12;3.35;;;2.30;;
21301;SDS011;10810;48.270;9.996;2022-08-05T19:14:40;2.85;;;2.00;;
21301;SDS011;10810;48.270;9.996;2022-08-05T19:17:11;3.55;;;2.22;;
21301;SDS011;10810;48.270;9.996;2022-08-05T19:19:38;5.82;;;1.92;;
21301;SDS011;10810;48.270;9.996;2022-08-05T19:22:07;3.60;;;1.98;;
21301;SDS011;10810;48.270;9.996;2022-08-05T19:24:37;2.97;;;1.90;;
21301;SDS011;10810;48.270;9.996;2022-08-05T19:27:05;3.13;;;2.17;;
21301;SDS011;10810;48.270;9.996;2022-08-05T19:29:48;3.10;;;2.10;;
21301;SDS011;10810;48.270;9.996;2022-08-05T19:32:29;3.50;;;2.10;;
21301;SDS011;10810;48.270;9.996;2022-08-05T19:34:57;3.00;;;2.00;;
21301;SDS011;10810;48.270;9.996;2022-08-05T19:37:26;3.15;;;1.77;;
21301;SDS011;10810;48.270;9.996;2022-08-05T19:39:57;3.00;;;2.10;;